sensor_id;sensor_type;location;lat;lon;timestamp;P1;durP1;ratioP1;P2;durP2;ratioP2
20519;SDS011;53432;51.952;14.740;2022-09-09T00:00:22;2.67;;;2.10;;
20519;SDS011;53432;51.952;14.740;2022-09-09T00:02:53;4.75;;;1.90;;
20519;SDS011;53432;51.952;14.740;2022-09-09T00:05:29;4.22;;;2.30;;
20519;SDS011;53432;51.952;14.740;2022-09-09T00:08:01;4.32;;;2.08;;
20519;SDS011;53432;51.952;14.740;2022-09-09T00:10:31;3.83;;;2.22;;
20519;SDS011;53432;51.952;14.740;2022-09-09T00:13:05;3.28;;;2.42;;
20519;SDS011;53432;51.952;14.740;2022-09-09T00:15:43;2.35;;;2.15;;
20519;SDS011;53432;51.952;14.740;2022-09-09T00:18:23;2.60;;;2.05;;
20519;SDS011;53432;51.952;14.740;2022-09-09T00:20:58;2.33;;;2.13;;
20519;SDS011;53432;51.952;14.740;2022-09-09T00:23:34;2.80;;;2.28;;
20519;SDS011;53432;51.952;14.740;2022-09-09T00:26:05;3.00;;;2.20;;
20519;SDS011;53432;51.952;14.740;2022-09-09T00:28:39;2.10;;;1.90;;
20519;SDS011;53432;51.952;14.740;2022-09-09T00:31:12;4.38;;;2.03;;
20519;SDS011;53432;51.952;14.740;2022-09-09T00:33:43;4.57;;;2.65;;
20519;SDS011;53432;51.952;14.740;2022-09-09T00:36:14;4.95;;;2.28;;
20519;SDS011;53432;51.952;14.740;2022-09-09T00:38:45;2.03;;;1.85;;
20519;SDS011;53432;51.952;14.740;2022-09-09T00:41:18;3.28;;;1.90;;
20519;SDS011;53432;51.952;14.740;2022-09-09T00:43:52;2.03;;;1.83;;
20519;SDS011;53432;51.952;14.740;2022-09-09T00:46:27;2.42;;;2.22;;
20519;SDS011;53432;51.952;14.740;2022-09-09T00:49:14;4.55;;;2.15;;
20519;SDS011;53432;51.952;14.740;2022-09-09T00:51:49;6.60;;;2.65;;
20519;SDS011;53432;51.952;14.740;2022-09-09T00:54:25;3.35;;;2.05;;
20519;SDS011;53432;51.952;14.740;2022-09-09T00:57:03;4.75;;;2.25;;
20519;SDS011;53432;51.952;14.740;2022-09-09T00:59:42;3.90;;;2.10;;
20519;SDS011;53432;51.952;14.740;2022-09-09T01:02:16;3.78;;;2.10;;
20519;SDS011;53432;51.952;14.740;2022-09-09T01:04:52;3.70;;;2.30;;
20519;SDS011;53432;51.952;14.740;2022-09-09T01:07:21;2.70;;;2.20;;
20519;SDS011;53432;51.952;14.740;2022-09-09T01:09:52;2.85;;;2.10;;
20519;SDS011;53432;51.952;14.740;2022-09-09T01:12:28;3.70;;;2.53;;
20519;SDS011;53432;51.952;14.740;2022-09-09T01:15:03;3.08;;;2.50;;
20519;SDS011;53432;51.952;14.740;2022-09-09T01:17:44;2.72;;;2.47;;
20519;SDS011;53432;51.952;14.740;2022-09-09T01:20:18;3.28;;;2.03;;
20519;SDS011;53432;51.952;14.740;2022-09-09T01:22:56;3.30;;;2.30;;
20519;SDS011;53432;51.952;14.740;2022-09-09T01:25:57;3.65;;;2.60;;
20519;SDS011;53432;51.952;14.740;2022-09-09T01:28:44;6.10;;;2.70;;
20519;SDS011;53432;51.952;14.740;2022-09-09T01:31:15;5.03;;;2.67;;
20519;SDS011;53432;51.952;14.740;2022-09-09T01:33:44;2.22;;;2.00;;
20519;SDS011;53432;51.952;14.740;2022-09-09T01:36:13;2.10;;;1.90;;
20519;SDS011;53432;51.952;14.740;2022-09-09T01:38:46;2.88;;;2.60;;
20519;SDS011;53432;51.952;14.740;2022-09-09T01:41:14;3.50;;;2.13;;
20519;SDS011;53432;51.952;14.740;2022-09-09T01:43:42;3.28;;;2.28;;
20519;SDS011;53432;51.952;14.740;2022-09-09T01:46:09;4.78;;;2.25;;
20519;SDS011;53432;51.952;14.740;2022-09-09T01:48:38;4.50;;;2.20;;
20519;SDS011;53432;51.952;14.740;2022-09-09T01:51:08;3.00;;;2.70;;
20519;SDS011;53432;51.952;14.740;2022-09-09T01:53:35;3.25;;;2.25;;
20519;SDS011;53432;51.952;14.740;2022-09-09T01:56:07;3.65;;;2.50;;
20519;SDS011;53432;51.952;14.740;2022-09-09T01:58:47;3.88;;;2.50;;
20519;SDS011;53432;51.952;14.740;2022-09-09T02:01:28;4.40;;;2.30;;
20519;SDS011;53432;51.952;14.740;2022-09-09T02:04:08;2.83;;;2.35;;
20519;SDS011;53432;51.952;14.740;2022-09-09T02:06:47;2.78;;;2.22;;
20519;SDS011;53432;51.952;14.740;2022-09-09T02:09:17;3.13;;;2.40;;
20519;SDS011;53432;51.952;14.740;2022-09-09T02:11:49;5.28;;;4.20;;
20519;SDS011;53432;51.952;14.740;2022-09-09T02:14:25;3.53;;;2.60;;
20519;SDS011;53432;51.952;14.740;2022-09-09T02:16:57;2.35;;;2.15;;
20519;SDS011;53432;51.952;14.740;2022-09-09T02:19:29;2.55;;;2.35;;
20519;SDS011;53432;51.952;14.740;2022-09-09T02:22:01;2.40;;;2.20;;
20519;SDS011;53432;51.952;14.740;2022-09-09T02:24:29;3.80;;;2.65;;
20519;SDS011;53432;51.952;14.740;2022-09-09T02:27:00;3.38;;;2.45;;
20519;SDS011;53432;51.952;14.740;2022-09-09T02:29:33;3.78;;;2.38;;
20519;SDS011;53432;51.952;14.740;2022-09-09T02:32:03;5.90;;;2.97;;
20519;SDS011;53432;51.952;14.740;2022-09-09T02:34:34;2.85;;;2.55;;
20519;SDS011;53432;51.952;14.740;2022-09-09T02:37:06;4.57;;;2.55;;
20519;SDS011;53432;51.952;14.740;2022-09-09T02:39:36;2.55;;;2.00;;
20519;SDS011;53432;51.952;14.740;2022-09-09T02:42:03;3.78;;;2.28;;
20519;SDS011;53432;51.952;14.740;2022-09-09T02:47:08;2.83;;;2.63;;
20519;SDS011;53432;51.952;14.740;2022-09-09T02:49:44;2.70;;;2.50;;
20519;SDS011;53432;51.952;14.740;2022-09-09T02:52:19;3.42;;;2.03;;
20519;SDS011;53432;51.952;14.740;2022-09-09T02:54:52;3.72;;;2.67;;
20519;SDS011;53432;51.952;14.740;2022-09-09T02:57:25;3.75;;;2.40;;
20519;SDS011;53432;51.952;14.740;2022-09-09T02:59:57;3.50;;;2.53;;
20519;SDS011;53432;51.952;14.740;2022-09-09T03:02:25;2.65;;;2.28;;
20519;SDS011;53432;51.952;14.740;2022-09-09T03:04:53;5.70;;;3.50;;
20519;SDS011;53432;51.952;14.740;2022-09-09T03:07:20;3.33;;;2.80;;
20519;SDS011;53432;51.952;14.740;2022-09-09T03:09:48;3.75;;;2.63;;
20519;SDS011;53432;51.952;14.740;2022-09-09T03:12:15;2.17;;;1.98;;
20519;SDS011;53432;51.952;14.740;2022-09-09T03:14:42;3.00;;;2.70;;
20519;SDS011;53432;51.952;14.740;2022-09-09T03:17:12;2.92;;;2.22;;
20519;SDS011;53432;51.952;14.740;2022-09-09T03:19:40;5.20;;;2.65;;
20519;SDS011;53432;51.952;14.740;2022-09-09T03:22:08;2.70;;;2.22;;
20519;SDS011;53432;51.952;14.740;2022-09-09T03:24:36;3.55;;;2.45;;
20519;SDS011;53432;51.952;14.740;2022-09-09T03:27:04;4.15;;;2.45;;
20519;SDS011;53432;51.952;14.740;2022-09-09T03:29:31;6.90;;;2.70;;
20519;SDS011;53432;51.952;14.740;2022-09-09T03:31:59;2.85;;;2.50;;
20519;SDS011;53432;51.952;14.740;2022-09-09T03:34:28;2.67;;;2.33;;
20519;SDS011;53432;51.952;14.740;2022-09-09T03:36:55;4.38;;;2.33;;
20519;SDS011;53432;51.952;14.740;2022-09-09T03:39:22;5.88;;;2.65;;
20519;SDS011;53432;51.952;14.740;2022-09-09T03:41:50;2.30;;;2.10;;
20519;SDS011;53432;51.952;14.740;2022-09-09T03:44:17;4.80;;;2.45;;
20519;SDS011;53432;51.952;14.740;2022-09-09T03:46:45;4.38;;;2.97;;
20519;SDS011;53432;51.952;14.740;2022-09-09T03:49:12;5.22;;;3.03;;
20519;SDS011;53432;51.952;14.740;2022-09-09T03:51:42;4.43;;;3.47;;
20519;SDS011;53432;51.952;14.740;2022-09-09T03:54:09;4.15;;;3.22;;
20519;SDS011;53432;51.952;14.740;2022-09-09T03:56:36;3.58;;;3.10;;
20519;SDS011;53432;51.952;14.740;2022-09-09T03:59:04;5.45;;;3.20;;
20519;SDS011;53432;51.952;14.740;2022-09-09T04:01:31;3.33;;;2.60;;
20519;SDS011;53432;51.952;14.740;2022-09-09T04:03:59;3.10;;;2.63;;
20519;SDS011;53432;51.952;14.740;2022-09-09T04:06:27;4.82;;;1.92;;
20519;SDS011;53432;51.952;14.740;2022-09-09T04:08:56;3.53;;;2.35;;
20519;SDS011;53432;51.952;14.740;2022-09-09T04:11:24;2.85;;;2.35;;
20519;SDS011;53432;51.952;14.740;2022-09-09T04:13:51;3.13;;;2.50;;
20519;SDS011;53432;51.952;14.740;2022-09-09T04:16:18;2.85;;;2.40;;
20519;SDS011;53432;51.952;14.740;2022-09-09T04:18:46;3.95;;;2.60;;
20519;SDS011;53432;51.952;14.740;2022-09-09T04:21:14;2.97;;;2.63;;
20519;SDS011;53432;51.952;14.740;2022-09-09T04:23:42;2.58;;;2.38;;
20519;SDS011;53432;51.952;14.740;2022-09-09T04:26:11;2.90;;;2.25;;
20519;SDS011;53432;51.952;14.740;2022-09-09T04:28:38;2.88;;;1.80;;
20519;SDS011;53432;51.952;14.740;2022-09-09T04:31:06;2.78;;;2.42;;
20519;SDS011;53432;51.952;14.740;2022-09-09T04:33:36;4.13;;;2.55;;
20519;SDS011;53432;51.952;14.740;2022-09-09T04:36:05;4.15;;;2.58;;
20519;SDS011;53432;51.952;14.740;2022-09-09T04:38:32;3.88;;;2.42;;
20519;SDS011;53432;51.952;14.740;2022-09-09T04:41:00;2.78;;;2.50;;
20519;SDS011;53432;51.952;14.740;2022-09-09T04:43:28;4.85;;;3.17;;
20519;SDS011;53432;51.952;14.740;2022-09-09T04:45:56;5.10;;;2.88;;
20519;SDS011;53432;51.952;14.740;2022-09-09T04:48:24;2.42;;;2.22;;
20519;SDS011;53432;51.952;14.740;2022-09-09T04:50:56;5.10;;;2.33;;
20519;SDS011;53432;51.952;14.740;2022-09-09T04:53:24;2.60;;;2.40;;
20519;SDS011;53432;51.952;14.740;2022-09-09T04:55:53;5.43;;;2.88;;
20519;SDS011;53432;51.952;14.740;2022-09-09T04:58:29;2.90;;;2.35;;
20519;SDS011;53432;51.952;14.740;2022-09-09T05:01:02;2.50;;;2.20;;
20519;SDS011;53432;51.952;14.740;2022-09-09T05:03:31;3.92;;;2.60;;
20519;SDS011;53432;51.952;14.740;2022-09-09T05:06:03;3.95;;;2.35;;
20519;SDS011;53432;51.952;14.740;2022-09-09T05:08:32;2.97;;;2.15;;
20519;SDS011;53432;51.952;14.740;2022-09-09T05:10:59;4.78;;;3.42;;
20519;SDS011;53432;51.952;14.740;2022-09-09T05:13:29;2.97;;;2.30;;
20519;SDS011;53432;51.952;14.740;2022-09-09T05:15:58;4.07;;;2.17;;
20519;SDS011;53432;51.952;14.740;2022-09-09T05:18:25;24.77;;;3.10;;
20519;SDS011;53432;51.952;14.740;2022-09-09T05:20:52;4.25;;;2.45;;
20519;SDS011;53432;51.952;14.740;2022-09-09T05:23:26;5.45;;;2.15;;
20519;SDS011;53432;51.952;14.740;2022-09-09T05:25:54;4.80;;;2.60;;
20519;SDS011;53432;51.952;14.740;2022-09-09T05:28:23;2.83;;;2.08;;
20519;SDS011;53432;51.952;14.740;2022-09-09T05:30:58;5.03;;;2.40;;
20519;SDS011;53432;51.952;14.740;2022-09-09T05:33:29;4.78;;;2.47;;
20519;SDS011;53432;51.952;14.740;2022-09-09T05:35:58;3.00;;;2.67;;
20519;SDS011;53432;51.952;14.740;2022-09-09T05:38:27;3.65;;;2.60;;
20519;SDS011;53432;51.952;14.740;2022-09-09T05:40:54;5.03;;;2.70;;
20519;SDS011;53432;51.952;14.740;2022-09-09T05:43:22;3.67;;;2.53;;
20519;SDS011;53432;51.952;14.740;2022-09-09T05:45:59;3.90;;;2.45;;
20519;SDS011;53432;51.952;14.740;2022-09-09T05:48:30;8.18;;;2.65;;
20519;SDS011;53432;51.952;14.740;2022-09-09T05:50:58;6.35;;;2.80;;
20519;SDS011;53432;51.952;14.740;2022-09-09T05:53:26;3.67;;;2.83;;
20519;SDS011;53432;51.952;14.740;2022-09-09T05:56:00;5.05;;;2.90;;
20519;SDS011;53432;51.952;14.740;2022-09-09T05:58:30;4.57;;;3.25;;
20519;SDS011;53432;51.952;14.740;2022-09-09T06:01:02;4.57;;;3.22;;
20519;SDS011;53432;51.952;14.740;2022-09-09T06:03:32;7.00;;;3.25;;
20519;SDS011;53432;51.952;14.740;2022-09-09T06:06:02;4.05;;;2.35;;
20519;SDS011;53432;51.952;14.740;2022-09-09T06:08:31;4.68;;;3.35;;
20519;SDS011;53432;51.952;14.740;2022-09-09T06:11:03;3.45;;;2.83;;
20519;SDS011;53432;51.952;14.740;2022-09-09T06:13:31;4.57;;;2.38;;
20519;SDS011;53432;51.952;14.740;2022-09-09T06:15:59;6.95;;;3.10;;
20519;SDS011;53432;51.952;14.740;2022-09-09T06:18:27;6.30;;;3.03;;
20519;SDS011;53432;51.952;14.740;2022-09-09T06:20:55;6.28;;;2.30;;
20519;SDS011;53432;51.952;14.740;2022-09-09T06:23:24;7.03;;;2.60;;
20519;SDS011;53432;51.952;14.740;2022-09-09T06:25:51;3.63;;;2.65;;
20519;SDS011;53432;51.952;14.740;2022-09-09T06:28:26;6.25;;;3.00;;
20519;SDS011;53432;51.952;14.740;2022-09-09T06:30:56;6.75;;;2.85;;
20519;SDS011;53432;51.952;14.740;2022-09-09T06:33:25;5.07;;;2.30;;
20519;SDS011;53432;51.952;14.740;2022-09-09T06:35:54;3.90;;;2.83;;
20519;SDS011;53432;51.952;14.740;2022-09-09T06:38:22;3.20;;;2.80;;
20519;SDS011;53432;51.952;14.740;2022-09-09T06:40:51;4.15;;;2.63;;
20519;SDS011;53432;51.952;14.740;2022-09-09T06:43:19;3.92;;;2.92;;
20519;SDS011;53432;51.952;14.740;2022-09-09T06:45:52;4.07;;;2.80;;
20519;SDS011;53432;51.952;14.740;2022-09-09T06:48:20;4.78;;;2.55;;
20519;SDS011;53432;51.952;14.740;2022-09-09T06:50:48;4.53;;;3.03;;
20519;SDS011;53432;51.952;14.740;2022-09-09T06:53:18;5.00;;;3.22;;
20519;SDS011;53432;51.952;14.740;2022-09-09T06:55:46;5.35;;;2.95;;
20519;SDS011;53432;51.952;14.740;2022-09-09T06:58:13;5.32;;;2.65;;
20519;SDS011;53432;51.952;14.740;2022-09-09T07:00:40;4.13;;;2.97;;
20519;SDS011;53432;51.952;14.740;2022-09-09T07:03:09;4.07;;;2.60;;
20519;SDS011;53432;51.952;14.740;2022-09-09T07:05:36;6.25;;;2.85;;
20519;SDS011;53432;51.952;14.740;2022-09-09T07:08:04;5.60;;;2.83;;
20519;SDS011;53432;51.952;14.740;2022-09-09T07:10:32;5.97;;;2.63;;
20519;SDS011;53432;51.952;14.740;2022-09-09T07:13:00;3.97;;;2.67;;
20519;SDS011;53432;51.952;14.740;2022-09-09T07:15:27;4.03;;;2.50;;
20519;SDS011;53432;51.952;14.740;2022-09-09T07:17:55;4.68;;;2.58;;
20519;SDS011;53432;51.952;14.740;2022-09-09T07:20:22;2.97;;;2.20;;
20519;SDS011;53432;51.952;14.740;2022-09-09T07:22:49;2.10;;;1.90;;
20519;SDS011;53432;51.952;14.740;2022-09-09T07:25:16;5.18;;;2.30;;
20519;SDS011;53432;51.952;14.740;2022-09-09T07:27:45;5.90;;;3.65;;
20519;SDS011;53432;51.952;14.740;2022-09-09T07:30:12;4.88;;;2.03;;
20519;SDS011;53432;51.952;14.740;2022-09-09T07:32:40;3.10;;;1.70;;
20519;SDS011;53432;51.952;14.740;2022-09-09T07:35:07;4.20;;;1.92;;
20519;SDS011;53432;51.952;14.740;2022-09-09T07:37:36;3.53;;;1.73;;
20519;SDS011;53432;51.952;14.740;2022-09-09T07:40:04;6.07;;;2.22;;
20519;SDS011;53432;51.952;14.740;2022-09-09T07:42:32;2.47;;;1.73;;
20519;SDS011;53432;51.952;14.740;2022-09-09T07:45:01;1.77;;;1.52;;
20519;SDS011;53432;51.952;14.740;2022-09-09T07:47:28;4.20;;;1.55;;
20519;SDS011;53432;51.952;14.740;2022-09-09T07:49:55;2.90;;;1.52;;
20519;SDS011;53432;51.952;14.740;2022-09-09T07:52:24;4.78;;;1.50;;
20519;SDS011;53432;51.952;14.740;2022-09-09T07:54:52;4.13;;;1.60;;
20519;SDS011;53432;51.952;14.740;2022-09-09T07:57:21;4.82;;;1.63;;
20519;SDS011;53432;51.952;14.740;2022-09-09T07:59:49;2.40;;;1.67;;
20519;SDS011;53432;51.952;14.740;2022-09-09T08:02:19;3.72;;;1.27;;
20519;SDS011;53432;51.952;14.740;2022-09-09T08:04:46;2.90;;;1.55;;
20519;SDS011;53432;51.952;14.740;2022-09-09T08:07:13;3.17;;;1.48;;
20519;SDS011;53432;51.952;14.740;2022-09-09T08:09:41;2.10;;;1.40;;
20519;SDS011;53432;51.952;14.740;2022-09-09T08:12:09;2.15;;;1.17;;
20519;SDS011;53432;51.952;14.740;2022-09-09T08:14:38;1.67;;;1.27;;
20519;SDS011;53432;51.952;14.740;2022-09-09T08:17:06;4.93;;;1.30;;
20519;SDS011;53432;51.952;14.740;2022-09-09T08:19:34;2.88;;;1.20;;
20519;SDS011;53432;51.952;14.740;2022-09-09T08:22:02;5.05;;;1.17;;
20519;SDS011;53432;51.952;14.740;2022-09-09T08:24:29;2.30;;;1.50;;
20519;SDS011;53432;51.952;14.740;2022-09-09T08:26:57;2.38;;;1.15;;
20519;SDS011;53432;51.952;14.740;2022-09-09T08:29:25;1.50;;;1.10;;
20519;SDS011;53432;51.952;14.740;2022-09-09T08:31:54;1.35;;;1.08;;
20519;SDS011;53432;51.952;14.740;2022-09-09T08:34:23;1.88;;;1.13;;
20519;SDS011;53432;51.952;14.740;2022-09-09T08:36:53;3.20;;;1.35;;
20519;SDS011;53432;51.952;14.740;2022-09-09T08:39:21;3.92;;;1.08;;
20519;SDS011;53432;51.952;14.740;2022-09-09T08:42:13;20.23;;;8.95;;
20519;SDS011;53432;51.952;14.740;2022-09-09T08:44:55;6.45;;;1.83;;
20519;SDS011;53432;51.952;14.740;2022-09-09T08:47:32;3.67;;;1.08;;
20519;SDS011;53432;51.952;14.740;2022-09-09T08:50:08;4.10;;;1.02;;
20519;SDS011;53432;51.952;14.740;2022-09-09T08:52:49;2.35;;;0.80;;
20519;SDS011;53432;51.952;14.740;2022-09-09T08:55:22;4.28;;;1.48;;
20519;SDS011;53432;51.952;14.740;2022-09-09T08:57:53;2.55;;;1.00;;
20519;SDS011;53432;51.952;14.740;2022-09-09T09:00:25;3.13;;;1.13;;
20519;SDS011;53432;51.952;14.740;2022-09-09T09:03:02;4.10;;;1.40;;
20519;SDS011;53432;51.952;14.740;2022-09-09T09:05:37;2.95;;;1.30;;
20519;SDS011;53432;51.952;14.740;2022-09-09T09:08:16;1.63;;;1.00;;
20519;SDS011;53432;51.952;14.740;2022-09-09T09:10:51;3.95;;;1.05;;
20519;SDS011;53432;51.952;14.740;2022-09-09T09:13:24;1.23;;;0.90;;
20519;SDS011;53432;51.952;14.740;2022-09-09T09:16:04;4.53;;;1.38;;
20519;SDS011;53432;51.952;14.740;2022-09-09T09:18:36;4.20;;;1.20;;
20519;SDS011;53432;51.952;14.740;2022-09-09T09:21:05;2.47;;;1.00;;
20519;SDS011;53432;51.952;14.740;2022-09-09T09:23:42;3.03;;;1.15;;
20519;SDS011;53432;51.952;14.740;2022-09-09T09:26:15;2.38;;;1.25;;
20519;SDS011;53432;51.952;14.740;2022-09-09T09:28:42;4.07;;;1.00;;
20519;SDS011;53432;51.952;14.740;2022-09-09T09:31:10;4.93;;;1.30;;
20519;SDS011;53432;51.952;14.740;2022-09-09T09:33:42;4.65;;;1.38;;
20519;SDS011;53432;51.952;14.740;2022-09-09T09:36:14;5.63;;;1.20;;
20519;SDS011;53432;51.952;14.740;2022-09-09T09:38:52;1.60;;;0.98;;
20519;SDS011;53432;51.952;14.740;2022-09-09T09:41:34;6.38;;;1.25;;
20519;SDS011;53432;51.952;14.740;2022-09-09T09:44:04;1.30;;;0.70;;
20519;SDS011;53432;51.952;14.740;2022-09-09T09:46:32;5.07;;;1.42;;
20519;SDS011;53432;51.952;14.740;2022-09-09T09:49:01;6.22;;;1.95;;
20519;SDS011;53432;51.952;14.740;2022-09-09T09:51:31;4.63;;;1.33;;
20519;SDS011;53432;51.952;14.740;2022-09-09T09:54:07;4.18;;;1.35;;
20519;SDS011;53432;51.952;14.740;2022-09-09T09:56:41;3.70;;;1.10;;
20519;SDS011;53432;51.952;14.740;2022-09-09T09:59:19;3.42;;;0.90;;
20519;SDS011;53432;51.952;14.740;2022-09-09T10:01:47;3.30;;;0.60;;
20519;SDS011;53432;51.952;14.740;2022-09-09T10:04:16;2.53;;;1.05;;
20519;SDS011;53432;51.952;14.740;2022-09-09T10:06:46;0.85;;;0.80;;
20519;SDS011;53432;51.952;14.740;2022-09-09T10:09:22;3.47;;;0.90;;
20519;SDS011;53432;51.952;14.740;2022-09-09T10:11:53;4.22;;;0.90;;
20519;SDS011;53432;51.952;14.740;2022-09-09T10:14:24;3.55;;;0.70;;
20519;SDS011;53432;51.952;14.740;2022-09-09T10:17:01;4.10;;;0.77;;
20519;SDS011;53432;51.952;14.740;2022-09-09T10:19:41;5.03;;;0.90;;
20519;SDS011;53432;51.952;14.740;2022-09-09T10:22:23;3.67;;;0.95;;
20519;SDS011;53432;51.952;14.740;2022-09-09T10:27:55;1.98;;;0.85;;
20519;SDS011;53432;51.952;14.740;2022-09-09T10:30:39;4.78;;;0.80;;
20519;SDS011;53432;51.952;14.740;2022-09-09T10:33:20;3.00;;;1.15;;
20519;SDS011;53432;51.952;14.740;2022-09-09T10:36:00;1.83;;;0.70;;
20519;SDS011;53432;51.952;14.740;2022-09-09T10:38:38;2.33;;;0.80;;
20519;SDS011;53432;51.952;14.740;2022-09-09T10:50:18;3.47;;;0.80;;
20519;SDS011;53432;51.952;14.740;2022-09-09T10:53:07;4.22;;;0.73;;
20519;SDS011;53432;51.952;14.740;2022-09-09T10:55:41;6.10;;;1.67;;
20519;SDS011;53432;51.952;14.740;2022-09-09T10:58:12;2.30;;;0.80;;
20519;SDS011;53432;51.952;14.740;2022-09-09T11:00:46;1.25;;;0.65;;
20519;SDS011;53432;51.952;14.740;2022-09-09T11:03:18;1.73;;;0.90;;
20519;SDS011;53432;51.952;14.740;2022-09-09T11:05:49;3.88;;;0.60;;
20519;SDS011;53432;51.952;14.740;2022-09-09T11:08:19;4.25;;;1.17;;
20519;SDS011;53432;51.952;14.740;2022-09-09T11:10:50;1.95;;;0.70;;
20519;SDS011;53432;51.952;14.740;2022-09-09T11:13:27;2.55;;;0.80;;
20519;SDS011;53432;51.952;14.740;2022-09-09T11:16:00;2.25;;;0.80;;
20519;SDS011;53432;51.952;14.740;2022-09-09T11:18:38;0.85;;;0.50;;
20519;SDS011;53432;51.952;14.740;2022-09-09T11:21:09;2.03;;;0.80;;
20519;SDS011;53432;51.952;14.740;2022-09-09T11:23:44;2.63;;;0.65;;
20519;SDS011;53432;51.952;14.740;2022-09-09T11:26:18;1.10;;;0.60;;
20519;SDS011;53432;51.952;14.740;2022-09-09T11:28:57;3.15;;;0.73;;
20519;SDS011;53432;51.952;14.740;2022-09-09T11:31:43;1.55;;;0.68;;
20519;SDS011;53432;51.952;14.740;2022-09-09T11:34:27;2.35;;;0.82;;
20519;SDS011;53432;51.952;14.740;2022-09-09T11:37:11;1.92;;;0.50;;
20519;SDS011;53432;51.952;14.740;2022-09-09T11:40:14;2.95;;;1.25;;
20519;SDS011;53432;51.952;14.740;2022-09-09T11:42:45;2.42;;;0.98;;
20519;SDS011;53432;51.952;14.740;2022-09-09T11:45:21;1.23;;;0.30;;
20519;SDS011;53432;51.952;14.740;2022-09-09T11:47:51;6.05;;;0.88;;
20519;SDS011;53432;51.952;14.740;2022-09-09T11:50:33;2.50;;;0.93;;
20519;SDS011;53432;51.952;14.740;2022-09-09T11:53:04;5.50;;;1.98;;
20519;SDS011;53432;51.952;14.740;2022-09-09T11:55:46;2.03;;;0.60;;
20519;SDS011;53432;51.952;14.740;2022-09-09T11:58:15;2.55;;;0.77;;
20519;SDS011;53432;51.952;14.740;2022-09-09T12:00:46;2.72;;;0.65;;
20519;SDS011;53432;51.952;14.740;2022-09-09T12:06:11;0.98;;;0.50;;
20519;SDS011;53432;51.952;14.740;2022-09-09T12:08:43;1.90;;;0.70;;
20519;SDS011;53432;51.952;14.740;2022-09-09T12:11:23;1.73;;;0.68;;
20519;SDS011;53432;51.952;14.740;2022-09-09T12:13:52;2.33;;;0.60;;
20519;SDS011;53432;51.952;14.740;2022-09-09T12:16:29;1.35;;;0.60;;
20519;SDS011;53432;51.952;14.740;2022-09-09T12:19:03;1.52;;;0.80;;
20519;SDS011;53432;51.952;14.740;2022-09-09T12:21:42;4.05;;;1.02;;
20519;SDS011;53432;51.952;14.740;2022-09-09T12:24:19;1.52;;;0.70;;
20519;SDS011;53432;51.952;14.740;2022-09-09T12:26:56;3.40;;;0.70;;
20519;SDS011;53432;51.952;14.740;2022-09-09T12:29:31;0.95;;;0.60;;
20519;SDS011;53432;51.952;14.740;2022-09-09T12:32:10;1.48;;;0.75;;
20519;SDS011;53432;51.952;14.740;2022-09-09T12:34:40;2.03;;;0.55;;
20519;SDS011;53432;51.952;14.740;2022-09-09T12:37:13;2.78;;;0.63;;
20519;SDS011;53432;51.952;14.740;2022-09-09T12:39:45;1.08;;;0.63;;
20519;SDS011;53432;51.952;14.740;2022-09-09T12:42:17;1.05;;;0.63;;
20519;SDS011;53432;51.952;14.740;2022-09-09T12:44:52;1.60;;;0.52;;
20519;SDS011;53432;51.952;14.740;2022-09-09T12:47:23;2.78;;;0.85;;
20519;SDS011;53432;51.952;14.740;2022-09-09T12:49:54;1.80;;;0.60;;
20519;SDS011;53432;51.952;14.740;2022-09-09T12:52:24;2.97;;;0.65;;
20519;SDS011;53432;51.952;14.740;2022-09-09T12:54:55;1.73;;;0.82;;
20519;SDS011;53432;51.952;14.740;2022-09-09T12:57:25;3.90;;;0.80;;
20519;SDS011;53432;51.952;14.740;2022-09-09T13:00:04;1.25;;;0.80;;
20519;SDS011;53432;51.952;14.740;2022-09-09T13:02:46;1.67;;;0.60;;
20519;SDS011;53432;51.952;14.740;2022-09-09T13:05:17;4.40;;;0.77;;
20519;SDS011;53432;51.952;14.740;2022-09-09T13:07:47;2.05;;;0.60;;
20519;SDS011;53432;51.952;14.740;2022-09-09T13:10:17;1.70;;;0.70;;
20519;SDS011;53432;51.952;14.740;2022-09-09T13:12:50;1.00;;;0.50;;
20519;SDS011;53432;51.952;14.740;2022-09-09T13:15:19;1.55;;;0.50;;
20519;SDS011;53432;51.952;14.740;2022-09-09T13:17:51;7.93;;;1.10;;
20519;SDS011;53432;51.952;14.740;2022-09-09T13:20:21;2.83;;;0.93;;
20519;SDS011;53432;51.952;14.740;2022-09-09T13:22:50;1.63;;;0.50;;
20519;SDS011;53432;51.952;14.740;2022-09-09T13:25:20;0.85;;;0.60;;
20519;SDS011;53432;51.952;14.740;2022-09-09T13:27:53;3.92;;;0.88;;
20519;SDS011;53432;51.952;14.740;2022-09-09T13:30:28;1.52;;;0.60;;
20519;SDS011;53432;51.952;14.740;2022-09-09T13:33:03;2.58;;;0.63;;
20519;SDS011;53432;51.952;14.740;2022-09-09T13:35:32;2.20;;;1.00;;
20519;SDS011;53432;51.952;14.740;2022-09-09T13:38:06;4.10;;;0.73;;
20519;SDS011;53432;51.952;14.740;2022-09-09T13:40:35;2.03;;;0.82;;
20519;SDS011;53432;51.952;14.740;2022-09-09T13:43:04;1.17;;;0.50;;
20519;SDS011;53432;51.952;14.740;2022-09-09T13:45:31;0.77;;;0.60;;
20519;SDS011;53432;51.952;14.740;2022-09-09T13:48:10;0.80;;;0.50;;
20519;SDS011;53432;51.952;14.740;2022-09-09T13:50:39;1.75;;;0.50;;
20519;SDS011;53432;51.952;14.740;2022-09-09T13:53:07;1.13;;;0.40;;
20519;SDS011;53432;51.952;14.740;2022-09-09T13:55:34;2.05;;;0.50;;
20519;SDS011;53432;51.952;14.740;2022-09-09T13:58:04;2.50;;;0.57;;
20519;SDS011;53432;51.952;14.740;2022-09-09T14:00:32;2.80;;;0.60;;
20519;SDS011;53432;51.952;14.740;2022-09-09T14:03:01;1.50;;;0.52;;
20519;SDS011;53432;51.952;14.740;2022-09-09T14:05:30;1.17;;;0.80;;
20519;SDS011;53432;51.952;14.740;2022-09-09T14:07:59;0.80;;;0.50;;
20519;SDS011;53432;51.952;14.740;2022-09-09T14:10:27;1.35;;;0.90;;
20519;SDS011;53432;51.952;14.740;2022-09-09T14:12:54;0.63;;;0.40;;
20519;SDS011;53432;51.952;14.740;2022-09-09T14:15:21;0.68;;;0.50;;
20519;SDS011;53432;51.952;14.740;2022-09-09T14:17:49;2.55;;;0.68;;
20519;SDS011;53432;51.952;14.740;2022-09-09T14:20:17;1.30;;;0.73;;
20519;SDS011;53432;51.952;14.740;2022-09-09T14:22:46;2.25;;;0.50;;
20519;SDS011;53432;51.952;14.740;2022-09-09T14:25:14;1.45;;;0.60;;
20519;SDS011;53432;51.952;14.740;2022-09-09T14:27:41;1.52;;;0.70;;
20519;SDS011;53432;51.952;14.740;2022-09-09T14:30:09;1.63;;;0.50;;
20519;SDS011;53432;51.952;14.740;2022-09-09T14:32:37;1.17;;;0.60;;
20519;SDS011;53432;51.952;14.740;2022-09-09T14:35:05;1.10;;;0.47;;
20519;SDS011;53432;51.952;14.740;2022-09-09T14:37:32;1.23;;;0.40;;
20519;SDS011;53432;51.952;14.740;2022-09-09T14:40:01;0.95;;;0.45;;
20519;SDS011;53432;51.952;14.740;2022-09-09T14:42:29;1.15;;;0.60;;
20519;SDS011;53432;51.952;14.740;2022-09-09T14:44:56;1.10;;;0.47;;
20519;SDS011;53432;51.952;14.740;2022-09-09T14:47:24;2.78;;;0.47;;
20519;SDS011;53432;51.952;14.740;2022-09-09T14:49:51;0.77;;;0.50;;
20519;SDS011;53432;51.952;14.740;2022-09-09T14:52:19;0.90;;;0.60;;
20519;SDS011;53432;51.952;14.740;2022-09-09T14:54:46;2.30;;;0.60;;
20519;SDS011;53432;51.952;14.740;2022-09-09T14:57:16;1.50;;;0.40;;
20519;SDS011;53432;51.952;14.740;2022-09-09T14:59:43;0.30;;;0.30;;
20519;SDS011;53432;51.952;14.740;2022-09-09T15:02:10;2.47;;;0.80;;
20519;SDS011;53432;51.952;14.740;2022-09-09T15:04:39;0.80;;;0.40;;
20519;SDS011;53432;51.952;14.740;2022-09-09T15:07:06;1.92;;;0.40;;
20519;SDS011;53432;51.952;14.740;2022-09-09T15:09:34;5.38;;;0.63;;
20519;SDS011;53432;51.952;14.740;2022-09-09T15:12:02;0.73;;;0.50;;
20519;SDS011;53432;51.952;14.740;2022-09-09T15:14:32;1.13;;;0.50;;